Time;durP1;ratioP1;P1;durP2;ratioP2;P2;SDS_P1;SDS_P2;PMS_P1;PMS_P2;Temp;Humidity;BMP_temperature;BMP_pressure;BME280_temperature;BME280_humidity;BME280_pressure;Samples;Min_cycle;Max_cycle;Signal;HPM_P1;HPM_P2
2024/02/05 00:01:23;;;;;;;5.25;1.98;;;20.90;45.70;;;;;;5111561;28;20574;-58
2024/02/05 00:03:49;;;;;;;3.05;1.20;;;20.80;45.60;;;;;;5110448;28;20066;-57
2024/02/05 00:06:15;;;;;;;3.63;1.42;;;20.90;45.70;;;;;;5094545;28;20458;-55
2024/02/05 00:08:41;;;;;;;3.58;1.20;;;20.90;45.70;;;;;;5094646;28;20060;-55
2024/02/05 00:11:07;;;;;;;3.38;1.40;;;20.80;45.60;;;;;;5111583;28;20094;-57
2024/02/05 00:13:33;;;;;;;4.85;1.52;;;20.90;45.60;;;;;;5113022;28;20028;-52
2024/02/05 00:16:00;;;;;;;4.50;1.60;;;20.90;45.60;;;;;;5114913;28;20023;-54
2024/02/05 00:18:25;;;;;;;2.70;1.17;;;20.80;45.60;;;;;;5098218;28;20403;-53
2024/02/05 00:20:52;;;;;;;5.03;1.70;;;20.80;45.60;;;;;;5115618;28;20028;-57
2024/02/05 00:23:18;;;;;;;5.20;1.55;;;20.80;45.60;;;;;;5115511;28;20181;-55
2024/02/05 00:25:44;;;;;;;5.20;1.60;;;20.80;45.60;;;;;;5116218;28;20126;-55
2024/02/05 00:28:11;;;;;;;4.82;1.80;;;20.80;45.60;;;;;;5116057;28;20045;-57
2024/02/05 00:30:37;;;;;;;6.15;2.28;;;20.80;45.60;;;;;;5115927;28;20077;-56
2024/02/05 00:33:03;;;;;;;4.47;1.95;;;20.80;45.60;;;;;;5116250;28;20035;-54
2024/02/05 00:35:29;;;;;;;6.20;1.60;;;20.80;45.50;;;;;;5098095;28;20435;-52
2024/02/05 00:37:54;;;;;;;7.40;2.47;;;20.80;45.50;;;;;;5115665;28;20088;-56
2024/02/05 00:40:20;;;;;;;4.32;1.63;;;20.80;45.50;;;;;;5115541;28;20051;-54
2024/02/05 00:42:46;;;;;;;5.80;1.80;;;20.70;45.50;;;;;;5115883;28;20027;-57
2024/02/05 00:45:12;;;;;;;5.65;1.80;;;20.80;45.50;;;;;;5106839;28;20059;-53
2024/02/05 00:47:38;;;;;;;4.53;1.65;;;20.70;45.50;;;;;;5094880;28;20028;-57
2024/02/05 00:50:05;;;;;;;3.75;1.60;;;20.70;45.40;;;;;;5095395;28;20470;-54
2024/02/05 00:52:34;;;;;;;6.28;1.90;;;20.70;45.40;;;;;;5094539;28;20047;-56
2024/02/05 00:55:00;;;;;;;5.75;1.73;;;20.70;45.40;;;;;;5095026;28;20027;-55
2024/02/05 00:57:26;;;;;;;4.95;1.88;;;20.70;45.40;;;;;;5094912;28;20040;-57
2024/02/05 00:59:59;;;;;;;4.72;1.52;;;20.70;45.40;;;;;;5089909;28;20467;-57
2024/02/05 01:02:25;;;;;;;5.65;1.70;;;20.70;45.40;;;;;;5095233;28;20503;-56
2024/02/05 01:04:51;;;;;;;6.97;1.73;;;20.70;45.50;;;;;;5094149;28;20035;-57
2024/02/05 01:07:17;;;;;;;5.57;1.33;;;20.70;45.40;;;;;;5093625;28;20035;-56
2024/02/05 01:09:43;;;;;;;6.88;1.95;;;20.70;45.40;;;;;;5094879;28;20028;-57
2024/02/05 01:12:09;;;;;;;7.25;1.80;;;20.70;45.40;;;;;;5076503;28;20439;-56
2024/02/05 01:14:35;;;;;;;6.63;2.20;;;20.70;45.40;;;;;;5076207;28;20028;-57
2024/02/05 01:17:02;;;;;;;4.80;1.95;;;20.70;45.40;;;;;;5094853;28;20050;-56
2024/02/05 01:19:28;;;;;;;4.20;1.80;;;20.70;45.40;;;;;;5094636;28;20034;-56
2024/02/05 01:21:53;;;;;;;5.85;1.88;;;20.70;45.40;;;;;;5076726;28;20024;-53
2024/02/05 01:24:19;;;;;;;4.07;1.90;;;20.70;45.40;;;;;;5094211;28;20355;-57
2024/02/05 01:26:45;;;;;;;6.15;2.08;;;20.70;45.40;;;;;;5094126;28;20021;-51
2024/02/05 01:29:11;;;;;;;4.85;1.80;;;20.70;45.40;;;;;;5094598;28;20024;-53
2024/02/05 01:31:37;;;;;;;5.57;1.58;;;20.60;45.40;;;;;;5094141;28;20031;-51
2024/02/05 01:34:04;;;;;;;8.98;1.88;;;20.60;45.40;;;;;;5094135;28;20454;-54
2024/02/05 01:36:29;;;;;;;7.68;2.10;;;20.60;45.30;;;;;;5094200;28;20377;-56
2024/02/05 01:38:55;;;;;;;5.28;1.80;;;20.60;45.40;;;;;;5094130;28;20036;-56
2024/02/05 01:41:24;;;;;;;6.32;1.80;;;20.60;45.40;;;;;;5075930;28;20489;-56
2024/02/05 01:43:50;;;;;;;4.97;1.92;;;20.60;45.30;;;;;;5094209;28;20020;-56
2024/02/05 01:46:20;;;;;;;5.50;1.80;;;20.60;45.30;;;;;;5076266;28;20388;-56
2024/02/05 01:48:50;;;;;;;5.63;1.80;;;20.60;45.30;;;;;;5073174;28;20110;-55
2024/02/05 01:51:17;;;;;;;6.35;1.60;;;20.60;45.30;;;;;;5071854;28;20037;-54
2024/02/05 01:53:43;;;;;;;5.60;1.90;;;20.60;45.30;;;;;;5073197;28;20081;-59
2024/02/05 01:56:10;;;;;;;6.22;2.20;;;20.60;45.30;;;;;;5073121;28;20031;-56
2024/02/05 01:58:39;;;;;;;6.65;2.03;;;20.60;45.30;;;;;;5073023;28;20451;-56
2024/02/05 02:01:09;;;;;;;6.72;2.35;;;20.60;45.30;;;;;;5072360;28;20020;-53
2024/02/05 02:03:40;;;;;;;5.70;2.08;;;20.60;45.30;;;;;;5072766;28;20459;-56
2024/02/05 02:06:09;;;;;;;5.13;1.90;;;20.60;45.30;;;;;;5071562;28;20047;-57
2024/02/05 02:08:37;;;;;;;4.47;1.65;;;20.60;45.30;;;;;;5071634;28;20025;-56
2024/02/05 02:11:03;;;;;;;6.53;1.90;;;20.60;45.30;;;;;;5073631;28;20016;-57
2024/02/05 02:13:32;;;;;;;6.05;1.70;;;20.50;45.20;;;;;;5072870;28;20039;-55
2024/02/05 02:16:02;;;;;;;5.97;1.80;;;20.50;45.20;;;;;;5069927;28;20045;-57
2024/02/05 02:18:30;;;;;;;8.73;1.90;;;20.50;45.20;;;;;;5064805;28;20159;-52
2024/02/05 02:20:58;;;;;;;5.07;1.98;;;20.50;45.20;;;;;;5073171;28;20032;-53
2024/02/05 02:23:33;;;;;;;6.07;2.33;;;20.50;45.20;;;;;;5072526;28;20024;-56
2024/02/05 02:26:03;;;;;;;4.35;1.48;;;20.50;45.20;;;;;;5071869;28;20037;-53
2024/02/05 02:28:29;;;;;;;5.43;1.80;;;20.50;45.20;;;;;;5072846;28;20035;-54
2024/02/05 02:30:56;;;;;;;5.75;2.00;;;20.50;45.20;;;;;;5055025;28;20025;-57
2024/02/05 02:33:49;;;;;;;5.25;2.00;;;20.50;45.20;;;;;;5071814;28;20036;-58
2024/02/05 02:36:22;;;;;;;6.32;1.88;;;20.50;45.20;;;;;;5069387;28;20020;-52
2024/02/05 02:39:05;;;;;;;5.50;1.92;;;20.50;45.20;;;;;;5072902;28;20044;-55
2024/02/05 02:41:36;;;;;;;5.27;1.70;;;20.50;45.20;;;;;;5046985;28;20030;-53
2024/02/05 02:44:02;;;;;;;5.05;1.83;;;20.50;45.20;;;;;;5070628;28;20273;-51
2024/02/05 02:46:29;;;;;;;7.38;2.13;;;20.50;45.20;;;;;;5088920;28;20063;-55
2024/02/05 02:48:55;;;;;;;6.53;1.83;;;20.50;45.20;;;;;;5092267;28;20028;-51
2024/02/05 02:51:22;;;;;;;5.45;1.90;;;20.40;45.10;;;;;;5089801;28;20435;-55
2024/02/05 02:53:48;;;;;;;6.97;2.10;;;20.40;45.10;;;;;;5092582;28;20016;-57
2024/02/05 02:56:14;;;;;;;4.72;1.83;;;20.40;45.10;;;;;;5091612;28;20028;-57
2024/02/05 02:58:39;;;;;;;7.32;2.50;;;20.40;45.10;;;;;;5090012;28;20043;-57
2024/02/05 03:01:06;;;;;;;5.60;2.05;;;20.40;45.10;;;;;;5112786;28;20023;-56
2024/02/05 03:03:31;;;;;;;6.88;1.88;;;20.40;45.10;;;;;;5113463;28;20024;-57
2024/02/05 03:05:57;;;;;;;5.80;1.98;;;20.40;45.10;;;;;;5113240;28;20115;-53
2024/02/05 03:08:24;;;;;;;4.63;1.70;;;20.40;45.10;;;;;;5113153;28;20020;-56
2024/02/05 03:10:50;;;;;;;5.65;2.10;;;20.40;45.10;;;;;;5112576;28;20028;-53
2024/02/05 03:13:17;;;;;;;6.43;2.25;;;20.40;45.10;;;;;;5113037;28;20023;-54
2024/02/05 03:15:43;;;;;;;5.30;1.90;;;20.40;45.10;;;;;;5113115;28;20020;-51
2024/02/05 03:18:10;;;;;;;5.75;1.92;;;20.40;45.10;;;;;;5111903;28;20050;-56
2024/02/05 03:20:40;;;;;;;5.70;1.98;;;20.40;45.10;;;;;;5113245;28;20035;-53
2024/02/05 03:23:10;;;;;;;6.32;1.90;;;20.40;45.10;;;;;;5112893;28;20038;-54
2024/02/05 03:25:37;;;;;;;5.88;2.28;;;20.40;45.20;;;;;;5112777;28;20165;-57
2024/02/05 03:28:04;;;;;;;5.90;2.30;;;20.40;45.20;;;;;;5112859;28;20023;-54
2024/02/05 03:30:34;;;;;;;4.80;1.90;;;20.40;45.20;;;;;;5112824;28;20043;-53
2024/02/05 03:33:01;;;;;;;5.65;2.25;;;20.40;45.10;;;;;;5112465;28;20461;-53
2024/02/05 03:35:28;;;;;;;8.80;2.92;;;20.40;45.10;;;;;;5112768;28;20020;-52
2024/02/05 03:37:55;;;;;;;4.63;1.70;;;20.40;45.10;;;;;;5112735;28;20080;-54
2024/02/05 03:40:21;;;;;;;4.85;1.77;;;20.40;45.10;;;;;;5112632;28;20522;-56
2024/02/05 03:42:51;;;;;;;4.90;2.20;;;20.30;45.20;;;;;;5112546;28;20024;-52
2024/02/05 03:45:18;;;;;;;5.35;1.80;;;20.30;45.10;;;;;;5111856;28;20047;-58
2024/02/05 03:47:44;;;;;;;7.07;2.40;;;20.30;45.10;;;;;;5113724;28;20416;-56
2024/02/05 03:50:10;;;;;;;8.57;2.42;;;20.30;45.10;;;;;;5115984;28;20057;-53
2024/02/05 03:52:45;;;;;;;6.43;2.10;;;20.30;45.10;;;;;;5116640;28;20363;-54
2024/02/05 03:55:12;;;;;;;5.85;1.75;;;20.40;45.10;;;;;;5117050;28;20019;-58
2024/02/05 03:57:42;;;;;;;6.43;2.30;;;20.30;45.10;;;;;;5114662;28;20028;-55
2024/02/05 04:00:11;;;;;;;4.88;1.83;;;20.30;45.10;;;;;;5116271;28;20088;-54
2024/02/05 04:02:41;;;;;;;7.10;1.88;;;20.30;45.10;;;;;;5114541;28;20020;-56
2024/02/05 04:05:08;;;;;;;5.43;1.70;;;20.30;45.10;;;;;;5116479;28;20042;-56
2024/02/05 04:07:37;;;;;;;7.75;2.50;;;20.30;45.10;;;;;;5116410;28;20031;-55
2024/02/05 04:10:03;;;;;;;6.75;2.08;;;20.30;45.10;;;;;;5114876;28;20036;-57
2024/02/05 04:12:29;;;;;;;6.97;2.53;;;20.30;45.10;;;;;;5115674;28;20028;-56
2024/02/05 04:14:55;;;;;;;6.32;1.65;;;20.30;45.10;;;;;;5115670;28;20030;-52
2024/02/05 04:17:20;;;;;;;5.70;2.05;;;20.30;45.10;;;;;;5115571;28;20039;-56
2024/02/05 04:19:46;;;;;;;5.70;2.10;;;20.30;45.10;;;;;;5098320;28;20405;-54
2024/02/05 04:22:12;;;;;;;6.65;1.88;;;20.30;45.10;;;;;;5116619;28;20019;-57
2024/02/05 04:24:38;;;;;;;6.22;2.20;;;20.30;45.10;;;;;;5116236;28;20346;-55
2024/02/05 04:27:05;;;;;;;5.32;1.88;;;20.30;45.10;;;;;;5098112;28;20027;-57
2024/02/05 04:29:31;;;;;;;6.80;2.10;;;20.30;45.10;;;;;;5116454;28;20023;-54
2024/02/05 04:31:57;;;;;;;6.68;2.13;;;20.30;45.10;;;;;;5115531;28;20462;-55
2024/02/05 04:34:23;;;;;;;6.85;1.95;;;20.30;45.10;;;;;;5115800;28;20354;-52
2024/02/05 04:36:49;;;;;;;7.95;2.30;;;20.30;45.10;;;;;;5115473;28;20031;-54
2024/02/05 04:39:15;;;;;;;6.60;1.83;;;20.30;45.10;;;;;;5116205;28;20043;-56
2024/02/05 04:41:41;;;;;;;5.78;1.58;;;20.30;45.10;;;;;;5113870;28;20016;-54
2024/02/05 04:44:07;;;;;;;6.03;1.80;;;20.20;45.10;;;;;;5115775;28;20016;-54
2024/02/05 04:46:33;;;;;;;6.45;1.88;;;20.20;45.10;;;;;;5116374;28;20082;-56
2024/02/05 04:48:59;;;;;;;6.18;2.20;;;20.20;45.70;;;;;;5115192;28;20025;-54
2024/02/05 04:51:25;;;;;;;4.57;1.70;;;20.30;45.10;;;;;;5113336;28;20032;-57
2024/02/05 04:53:51;;;;;;;6.95;2.50;;;20.20;45.10;;;;;;5114465;28;20086;-55
2024/02/05 04:56:17;;;;;;;5.60;1.83;;;20.20;45.10;;;;;;5114991;28;20020;-56
2024/02/05 04:58:43;;;;;;;5.25;2.03;;;20.20;45.10;;;;;;5115315;28;20143;-56
2024/02/05 05:01:09;;;;;;;6.22;2.22;;;20.20;45.10;;;;;;5115324;28;20470;-56
2024/02/05 05:03:36;;;;;;;7.63;2.15;;;20.20;45.10;;;;;;5115842;28;20045;-58
2024/02/05 05:06:02;;;;;;;4.47;1.73;;;20.20;45.00;;;;;;5115399;28;20400;-54
2024/02/05 05:08:28;;;;;;;7.88;2.05;;;20.20;45.10;;;;;;5115497;28;20035;-57
2024/02/05 05:10:54;;;;;;;6.03;2.20;;;20.20;45.00;;;;;;5115068;28;20024;-54
2024/02/05 05:13:20;;;;;;;6.38;2.70;;;20.20;45.00;;;;;;5115326;28;20028;-56
2024/02/05 05:15:49;;;;;;;5.15;1.80;;;20.20;45.10;;;;;;5114820;28;20442;-51
2024/02/05 05:18:15;;;;;;;6.57;2.10;;;20.20;45.10;;;;;;5114548;28;20051;-56
2024/02/05 05:20:42;;;;;;;4.65;2.10;;;20.20;45.00;;;;;;5114796;28;20041;-55
2024/02/05 05:23:08;;;;;;;8.63;2.42;;;20.20;45.00;;;;;;5113942;28;20038;-57
2024/02/05 05:25:34;;;;;;;5.55;2.10;;;20.20;45.00;;;;;;5115356;28;20028;-54
2024/02/05 05:27:59;;;;;;;7.22;2.08;;;20.20;45.00;;;;;;5115240;28;20042;-56
2024/02/05 05:30:26;;;;;;;7.95;1.98;;;20.20;45.00;;;;;;5114638;28;20028;-56
2024/02/05 05:32:51;;;;;;;8.10;2.20;;;20.10;45.00;;;;;;5115251;28;20315;-57
2024/02/05 05:35:17;;;;;;;6.95;2.10;;;20.20;45.00;;;;;;5114696;28;20034;-52
2024/02/05 05:37:43;;;;;;;5.82;2.00;;;20.10;45.00;;;;;;5114149;28;20043;-58
2024/02/05 05:40:10;;;;;;;6.95;2.38;;;20.10;44.90;;;;;;5114370;28;20047;-53
2024/02/05 05:42:36;;;;;;;6.35;2.00;;;20.10;44.90;;;;;;5114841;28;20024;-56
2024/02/05 05:45:03;;;;;;;5.72;2.05;;;20.10;45.00;;;;;;5114323;28;20051;-53
2024/02/05 05:47:29;;;;;;;6.57;1.92;;;20.10;44.90;;;;;;5114341;28;20031;-59
2024/02/05 05:49:55;;;;;;;4.18;1.90;;;20.10;44.90;;;;;;5113928;28;20024;-57
2024/02/05 05:52:21;;;;;;;7.13;2.15;;;20.10;44.90;;;;;;5113473;28;20114;-55
2024/02/05 05:54:47;;;;;;;5.35;1.85;;;20.10;44.90;;;;;;5114458;28;20139;-54
2024/02/05 05:57:14;;;;;;;5.05;1.92;;;20.10;44.90;;;;;;5113597;28;20510;-57
2024/02/05 05:59:41;;;;;;;5.45;1.92;;;20.10;44.80;;;;;;5111928;28;20422;-55
2024/02/05 06:02:10;;;;;;;5.07;2.10;;;20.10;44.80;;;;;;5113783;28;20028;-56
2024/02/05 06:04:36;;;;;;;6.70;2.45;;;20.10;44.80;;;;;;5113885;28;20035;-54
2024/02/05 06:07:06;;;;;;;6.90;1.75;;;20.10;44.80;;;;;;5114036;28;20096;-53
2024/02/05 06:09:32;;;;;;;4.85;1.80;;;20.10;44.80;;;;;;5114010;28;20066;-55
2024/02/05 06:11:58;;;;;;;7.30;2.03;;;20.10;44.80;;;;;;5113007;28;20135;-55
2024/02/05 06:14:24;;;;;;;6.10;1.92;;;20.10;44.80;;;;;;5114059;28;20494;-56
2024/02/05 06:16:50;;;;;;;5.55;1.90;;;20.10;44.80;;;;;;5112596;28;20178;-57
2024/02/05 06:19:16;;;;;;;6.03;2.05;;;20.10;44.80;;;;;;5113833;28;20363;-54
2024/02/05 06:21:42;;;;;;;5.50;1.58;;;20.10;44.70;;;;;;5095378;28;20046;-54
2024/02/05 06:24:07;;;;;;;6.20;2.00;;;20.10;44.80;;;;;;5113868;28;20028;-54
2024/02/05 06:26:33;;;;;;;7.25;1.98;;;20.10;44.70;;;;;;5113796;28;20023;-55
2024/02/05 06:28:59;;;;;;;4.18;1.83;;;20.10;44.70;;;;;;5113506;28;20080;-56
2024/02/05 06:31:25;;;;;;;5.13;1.70;;;20.10;44.80;;;;;;5112839;28;20109;-58
2024/02/05 06:33:50;;;;;;;5.13;1.98;;;20.10;44.70;;;;;;5112990;28;20019;-57
2024/02/05 06:36:16;;;;;;;10.02;2.30;;;20.10;44.70;;;;;;5113623;28;20023;-54
2024/02/05 06:38:42;;;;;;;6.10;1.83;;;20.00;44.70;;;;;;5113366;28;20454;-56
2024/02/05 06:41:08;;;;;;;6.93;2.17;;;20.00;44.70;;;;;;5113105;28;20051;-57
2024/02/05 06:43:35;;;;;;;7.78;2.17;;;20.00;44.60;;;;;;5113071;28;20219;-55
2024/02/05 06:46:02;;;;;;;6.50;1.95;;;20.00;44.60;;;;;;5110604;28;20146;-55
2024/02/05 06:48:31;;;;;;;9.15;2.33;;;20.00;44.60;;;;;;5112851;28;20058;-58
2024/02/05 06:50:57;;;;;;;4.85;1.60;;;20.00;44.60;;;;;;5113008;28;20031;-57
2024/02/05 06:53:23;;;;;;;5.95;1.70;;;20.00;44.60;;;;;;5112980;28;20031;-56
2024/02/05 06:55:49;;;;;;;6.35;1.95;;;20.00;44.60;;;;;;5112698;28;20045;-56
2024/02/05 06:58:14;;;;;;;7.10;1.83;;;20.00;44.60;;;;;;5112495;28;20035;-54
2024/02/05 07:00:41;;;;;;;5.95;1.60;;;20.00;44.50;;;;;;5113140;28;20067;-54
2024/02/05 07:03:06;;;;;;;5.50;1.85;;;20.00;44.50;;;;;;5112820;28;20036;-57
2024/02/05 07:05:32;;;;;;;3.70;1.23;;;20.00;44.50;;;;;;5112919;28;20034;-53
2024/02/05 07:07:58;;;;;;;3.88;1.77;;;20.00;44.50;;;;;;5112746;28;20055;-54
2024/02/05 07:10:24;;;;;;;5.10;2.17;;;20.00;44.50;;;;;;5112699;28;20102;-55
2024/02/05 07:12:50;;;;;;;5.35;1.65;;;20.00;44.50;;;;;;5112230;28;20035;-52
2024/02/05 07:15:16;;;;;;;5.50;1.95;;;20.00;44.50;;;;;;5110558;28;20420;-53
2024/02/05 07:17:43;;;;;;;5.35;2.13;;;20.00;44.50;;;;;;5112987;28;20179;-55
2024/02/05 07:20:09;;;;;;;6.97;1.83;;;20.00;44.50;;;;;;5113218;28;20088;-56
2024/02/05 07:22:35;;;;;;;5.78;1.92;;;20.00;44.50;;;;;;5113214;28;20024;-56
2024/02/05 07:25:01;;;;;;;6.32;1.85;;;19.90;44.40;;;;;;5112809;28;20027;-54
2024/02/05 07:27:27;;;;;;;7.28;2.03;;;20.00;44.50;;;;;;5112680;28;20351;-54
2024/02/05 07:29:54;;;;;;;7.35;2.55;;;19.90;44.40;;;;;;5112288;28;20027;-53
2024/02/05 07:32:20;;;;;;;4.57;1.95;;;20.00;44.50;;;;;;5112834;28;20042;-54
2024/02/05 07:34:46;;;;;;;4.93;1.67;;;20.00;44.40;;;;;;5111576;28;20164;-55
2024/02/05 07:37:12;;;;;;;5.80;1.75;;;19.90;44.40;;;;;;5112456;28;20311;-56
2024/02/05 07:39:38;;;;;;;4.60;1.75;;;20.00;44.40;;;;;;5112414;28;20035;-61
2024/02/05 07:42:04;;;;;;;6.30;1.60;;;20.00;44.40;;;;;;5113012;28;20446;-53
2024/02/05 07:44:30;;;;;;;6.68;2.30;;;19.90;44.40;;;;;;5111544;28;20106;-52
2024/02/05 07:46:56;;;;;;;7.47;2.05;;;20.00;44.40;;;;;;5112767;28;20131;-57
2024/02/05 07:49:22;;;;;;;4.65;1.48;;;20.00;44.40;;;;;;5112069;28;20035;-58
2024/02/05 07:51:49;;;;;;;5.25;1.70;;;20.00;44.40;;;;;;5112436;28;20098;-56
2024/02/05 07:54:18;;;;;;;6.78;1.65;;;19.90;44.30;;;;;;5113417;28;20036;-54
2024/02/05 07:56:44;;;;;;;6.43;1.98;;;19.90;44.30;;;;;;5113019;28;20342;-53
2024/02/05 07:59:11;;;;;;;6.13;2.25;;;19.90;44.30;;;;;;5112270;28;20039;-55
2024/02/05 08:01:37;;;;;;;6.82;1.95;;;19.90;44.40;;;;;;5112438;28;20108;-57
2024/02/05 08:04:03;;;;;;;5.70;2.05;;;19.90;44.30;;;;;;5112871;28;20054;-60
2024/02/05 08:06:30;;;;;;;6.45;1.95;;;19.90;44.40;;;;;;5111379;28;20386;-55
2024/02/05 08:08:56;;;;;;;5.18;1.83;;;20.00;44.40;;;;;;5112950;28;20055;-54
2024/02/05 08:11:25;;;;;;;6.28;2.13;;;19.90;44.40;;;;;;5112908;28;20027;-53
2024/02/05 08:13:52;;;;;;;5.35;1.67;;;20.00;44.40;;;;;;5094504;28;20091;-55
2024/02/05 08:16:18;;;;;;;3.97;1.60;;;20.00;44.40;;;;;;5112689;28;20040;-54
2024/02/05 08:18:44;;;;;;;8.45;2.13;;;20.10;44.40;;;;;;5112511;28;20032;-54
2024/02/05 08:21:10;;;;;;;6.95;2.00;;;20.10;44.30;;;;;;5112568;28;20036;-54
2024/02/05 08:23:36;;;;;;;7.35;2.47;;;20.10;44.30;;;;;;5112016;28;20087;-56
2024/02/05 08:26:02;;;;;;;9.38;2.30;;;20.10;44.20;;;;;;5111548;28;20477;-53
2024/02/05 08:28:28;;;;;;;6.60;1.85;;;20.20;44.20;;;;;;5112289;28;20031;-52
2024/02/05 08:30:55;;;;;;;5.10;1.80;;;20.20;44.10;;;;;;5112827;28;20019;-56
2024/02/05 08:33:20;;;;;;;8.25;2.22;;;20.30;44.00;;;;;;5112929;28;20031;-55
2024/02/05 08:35:46;;;;;;;5.03;1.60;;;20.30;44.00;;;;;;5116834;28;20034;-54
2024/02/05 08:38:12;;;;;;;6.70;2.42;;;20.30;43.90;;;;;;5117541;28;20042;-56
2024/02/05 08:40:38;;;;;;;4.97;2.17;;;20.40;43.80;;;;;;5116673;28;20086;-57
2024/02/05 08:43:05;;;;;;;5.70;1.90;;;20.40;43.80;;;;;;5098038;28;20409;-56
2024/02/05 08:45:31;;;;;;;5.22;2.15;;;20.40;43.80;;;;;;5115175;28;20043;-55
2024/02/05 08:47:59;;;;;;;6.05;2.08;;;20.50;43.70;;;;;;5115241;28;20047;-54
2024/02/05 08:50:31;;;;;;;8.65;2.47;;;20.50;43.70;;;;;;5110811;28;20058;-54
2024/02/05 08:52:57;;;;;;;4.80;1.90;;;20.50;43.60;;;;;;5115723;28;20024;-54
2024/02/05 08:55:23;;;;;;;5.50;2.08;;;20.60;43.60;;;;;;5116302;28;20035;-54
2024/02/05 08:57:51;;;;;;;8.90;2.25;;;20.60;43.50;;;;;;5115388;28;20110;-56
2024/02/05 09:00:19;;;;;;;5.88;1.77;;;20.60;43.40;;;;;;5114577;28;20028;-55
2024/02/05 09:02:50;;;;;;;6.50;1.85;;;20.70;43.40;;;;;;5096967;28;20466;-53
2024/02/05 09:05:16;;;;;;;5.45;1.73;;;20.70;43.30;;;;;;5115385;28;20023;-55
2024/02/05 09:07:42;;;;;;;8.23;2.10;;;20.70;43.30;;;;;;5114998;28;20407;-54
2024/02/05 09:10:08;;;;;;;7.30;2.45;;;20.80;43.30;;;;;;5116064;28;20110;-54
2024/02/05 09:12:34;;;;;;;5.43;1.80;;;20.80;43.20;;;;;;5115862;28;20461;-56
2024/02/05 09:15:00;;;;;;;6.25;1.77;;;20.80;43.10;;;;;;5116401;28;20064;-53
2024/02/05 09:17:26;;;;;;;7.13;2.25;;;20.90;43.10;;;;;;5116608;28;20032;-54
2024/02/05 09:19:52;;;;;;;6.45;2.17;;;20.90;43.10;;;;;;5116006;28;20019;-52
2024/02/05 09:22:18;;;;;;;6.97;2.03;;;20.90;43.00;;;;;;5121067;27;20097;-55
2024/02/05 09:24:45;;;;;;;5.60;1.95;;;20.90;43.00;;;;;;5116080;27;20023;-54
2024/02/05 09:27:11;;;;;;;5.00;2.17;;;20.90;42.90;;;;;;5117539;27;20043;-51
2024/02/05 09:29:37;;;;;;;7.10;2.20;;;20.90;42.90;;;;;;5116659;28;20043;-57
2024/02/05 09:32:05;;;;;;;4.72;1.88;;;20.90;42.90;;;;;;5099540;28;20032;-51
2024/02/05 09:34:31;;;;;;;7.60;2.22;;;21.00;42.90;;;;;;5117796;28;20043;-54
2024/02/05 09:36:57;;;;;;;6.47;2.08;;;21.00;42.80;;;;;;5117972;28;20039;-54
2024/02/05 09:39:23;;;;;;;7.00;2.47;;;21.00;42.80;;;;;;5098347;28;20780;-52
2024/02/05 09:41:51;;;;;;;7.72;2.25;;;21.00;42.70;;;;;;5117000;28;20031;-52
2024/02/05 09:44:18;;;;;;;6.45;2.38;;;21.00;42.60;;;;;;5116665;28;20057;-56
2024/02/05 09:46:49;;;;;;;7.60;2.55;;;21.00;42.60;;;;;;5098098;28;20047;-53
2024/02/05 09:49:17;;;;;;;6.40;2.40;;;21.00;42.50;;;;;;5117473;28;20031;-54
2024/02/05 09:51:47;;;;;;;6.03;2.20;;;21.10;42.50;;;;;;5117294;28;20047;-53
2024/02/05 09:54:14;;;;;;;5.60;2.08;;;21.10;42.50;;;;;;5116807;28;20108;-52
2024/02/05 09:56:41;;;;;;;7.15;2.17;;;21.10;42.50;;;;;;5116836;28;20458;-55
2024/02/05 09:59:07;;;;;;;7.93;2.15;;;21.10;42.40;;;;;;5116760;28;20039;-53
2024/02/05 10:01:34;;;;;;;5.90;1.77;;;21.10;42.30;;;;;;5116570;28;20027;-56
2024/02/05 10:04:03;;;;;;;6.82;2.25;;;21.20;42.30;;;;;;5117154;28;20036;-55
2024/02/05 10:06:33;;;;;;;7.93;2.17;;;21.20;42.20;;;;;;5116194;28;20047;-54
2024/02/05 10:09:04;;;;;;;6.63;2.45;;;21.20;42.10;;;;;;5097604;28;20042;-55
2024/02/05 10:11:32;;;;;;;6.65;2.10;;;21.30;42.00;;;;;;5116773;28;20122;-55
2024/02/05 10:13:58;;;;;;;5.93;2.15;;;21.30;41.90;;;;;;5116140;28;20027;-54
2024/02/05 10:16:24;;;;;;;8.68;2.42;;;21.30;41.80;;;;;;5116408;28;20107;-56
2024/02/05 10:18:50;;;;;;;6.20;2.20;;;21.40;41.80;;;;;;5115208;28;20165;-55
2024/02/05 10:21:16;;;;;;;5.38;2.20;;;21.40;41.70;;;;;;5116546;28;20069;-55
2024/02/05 10:23:53;;;;;;;6.20;1.77;;;21.40;41.70;;;;;;5116611;28;20040;-55
2024/02/05 10:26:19;;;;;;;6.68;2.00;;;21.50;41.60;;;;;;5116536;28;20038;-54
2024/02/05 10:28:45;;;;;;;5.15;1.80;;;21.50;41.50;;;;;;5116274;28;20027;-55
2024/02/05 10:31:11;;;;;;;5.70;1.75;;;21.50;41.50;;;;;;5116661;28;20028;-56
2024/02/05 10:33:40;;;;;;;6.30;2.20;;;21.60;41.50;;;;;;5115872;28;20076;-57
2024/02/05 10:36:07;;;;;;;6.22;1.83;;;21.60;41.40;;;;;;5116471;28;20028;-54
2024/02/05 10:38:36;;;;;;;5.05;1.70;;;21.60;41.40;;;;;;5116195;28;20043;-54
2024/02/05 10:41:05;;;;;;;6.18;2.35;;;21.60;41.30;;;;;;5115872;28;20420;-56
2024/02/05 10:43:30;;;;;;;5.32;1.58;;;21.60;41.20;;;;;;5115624;28;20036;-57
2024/02/05 10:45:59;;;;;;;5.43;1.98;;;21.60;41.20;;;;;;5116465;28;20049;-54
2024/02/05 10:48:25;;;;;;;7.72;1.98;;;21.70;41.20;;;;;;5116206;28;20031;-56
2024/02/05 10:50:52;;;;;;;5.28;1.60;;;21.70;41.10;;;;;;5115210;28;20035;-58
2024/02/05 10:53:17;;;;;;;6.88;1.98;;;21.70;41.10;;;;;;5115611;28;20032;-53
2024/02/05 10:55:47;;;;;;;6.07;2.00;;;21.70;41.10;;;;;;5115818;28;20088;-55
2024/02/05 10:58:14;;;;;;;6.47;2.10;;;21.70;41.10;;;;;;5115683;28;20039;-54
2024/02/05 11:00:41;;;;;;;7.55;2.00;;;21.70;41.00;;;;;;5114783;28;20027;-53
2024/02/05 11:03:09;;;;;;;8.93;2.40;;;21.70;41.00;;;;;;5115572;28;20028;-55
2024/02/05 11:05:43;;;;;;;4.47;1.75;;;21.70;40.90;;;;;;5115761;28;20027;-52
2024/02/05 11:08:12;;;;;;;6.63;2.10;;;21.70;40.90;;;;;;5114569;28;20107;-53
2024/02/05 11:10:46;;;;;;;5.88;1.77;;;21.70;40.80;;;;;;5115817;28;20338;-55
2024/02/05 11:13:34;;;;;;;6.25;2.20;;;21.70;40.80;;;;;;5114931;28;20040;-55
2024/02/05 11:16:02;;;;;;;5.30;2.10;;;21.70;40.70;;;;;;5115553;28;20027;-56
2024/02/05 11:18:36;;;;;;;6.20;2.00;;;21.70;40.70;;;;;;5114317;28;20143;-56
2024/02/05 11:21:03;;;;;;;9.43;2.75;;;21.70;40.60;;;;;;5115326;28;20028;-56
2024/02/05 11:23:32;;;;;;;5.65;2.22;;;21.70;40.70;;;;;;5115944;28;20096;-54
2024/02/05 11:25:59;;;;;;;5.78;2.10;;;21.70;40.60;;;;;;5115508;28;20024;-55
2024/02/05 11:28:25;;;;;;;6.13;2.28;;;21.70;40.60;;;;;;5115257;28;20035;-52
2024/02/05 11:30:51;;;;;;;8.63;2.20;;;21.70;40.60;;;;;;5115584;28;20034;-57
2024/02/05 11:33:29;;;;;;;6.25;1.80;;;21.70;40.60;;;;;;5115117;28;20028;-56
2024/02/05 11:35:56;;;;;;;5.60;2.08;;;21.70;40.50;;;;;;5115505;28;20028;-57
2024/02/05 11:38:22;;;;;;;4.53;1.73;;;21.70;40.50;;;;;;5114420;28;20040;-56
2024/02/05 11:40:50;;;;;;;5.28;2.15;;;21.70;40.50;;;;;;5114463;28;20031;-54
2024/02/05 11:43:24;;;;;;;7.03;1.90;;;21.70;40.50;;;;;;5096699;28;20438;-53
2024/02/05 11:45:54;;;;;;;5.85;1.88;;;21.70;40.50;;;;;;5114681;28;20047;-57
2024/02/05 11:48:21;;;;;;;5.80;1.70;;;21.70;40.50;;;;;;5115391;28;20107;-56
2024/02/05 11:50:48;;;;;;;7.15;2.13;;;21.70;40.50;;;;;;5114502;28;20038;-53
2024/02/05 11:53:15;;;;;;;7.38;2.10;;;21.70;40.50;;;;;;5114657;28;20038;-57
2024/02/05 11:55:41;;;;;;;6.05;2.00;;;21.60;40.50;;;;;;5114501;28;20023;-56
2024/02/05 11:58:08;;;;;;;6.03;2.05;;;21.60;40.50;;;;;;5114058;28;20032;-54
2024/02/05 12:00:33;;;;;;;5.50;1.90;;;21.70;40.60;;;;;;5114564;28;20432;-55
2024/02/05 12:03:00;;;;;;;5.90;1.63;;;21.60;40.60;;;;;;5114369;28;20107;-54
2024/02/05 12:05:26;;;;;;;5.22;1.88;;;21.60;40.60;;;;;;5113125;28;20109;-57
2024/02/05 12:07:54;;;;;;;6.13;2.00;;;21.60;40.60;;;;;;5111956;28;20016;-55
2024/02/05 12:10:21;;;;;;;4.57;1.80;;;21.60;40.60;;;;;;5116501;28;20133;-55
2024/02/05 12:12:46;;;;;;;5.30;1.70;;;21.60;40.60;;;;;;5116171;28;20032;-52
2024/02/05 12:15:20;;;;;;;5.55;2.38;;;21.60;40.60;;;;;;5115924;28;20051;-56
2024/02/05 12:17:49;;;;;;;5.60;1.73;;;21.60;40.60;;;;;;5116676;28;20035;-55
2024/02/05 12:20:19;;;;;;;5.60;2.22;;;21.60;40.60;;;;;;5113997;28;20360;-57
2024/02/05 12:22:48;;;;;;;3.90;1.48;;;21.60;40.70;;;;;;5117247;28;20034;-56
2024/02/05 12:25:15;;;;;;;7.70;2.40;;;21.60;40.70;;;;;;5117534;28;20115;-57
2024/02/05 12:27:42;;;;;;;5.57;1.85;;;21.50;40.70;;;;;;5116950;28;20400;-57
2024/02/05 12:30:09;;;;;;;7.28;2.20;;;21.50;40.70;;;;;;5098739;28;20024;-58
2024/02/05 12:32:35;;;;;;;5.93;1.45;;;21.50;40.80;;;;;;5116173;28;20024;-59
2024/02/05 12:35:01;;;;;;;4.25;1.77;;;21.50;40.90;;;;;;5082299;28;20031;-55
2024/02/05 12:37:28;;;;;;;5.55;1.98;;;21.50;41.00;;;;;;5116910;28;20023;-56
2024/02/05 12:39:55;;;;;;;5.10;1.63;;;21.60;41.10;;;;;;5116464;28;20023;-57
2024/02/05 12:42:27;;;;;;;3.55;1.45;;;21.50;41.10;;;;;;5117397;28;20046;-61
2024/02/05 12:44:53;;;;;;;5.57;1.85;;;21.50;41.10;;;;;;5116842;28;20324;-59
2024/02/05 12:47:20;;;;;;;4.95;1.83;;;21.50;41.10;;;;;;5118502;28;20032;-59